Time;durP1;ratioP1;P1;durP2;ratioP2;P2;SDS_P1;SDS_P2;PMS_P1;PMS_P2;Temp;Humidity;BMP_temperature;BMP_pressure;BME280_temperature;BME280_humidity;BME280_pressure;Samples;Min_cycle;Max_cycle;Signal;HPM_P1;HPM_P2
2023/03/27 00:02:25;;;;;;;0.80;0.80;;;4.70;99.90;;;;;;5052812;28;20056;-86
2023/03/27 00:04:53;;;;;;;1.40;1.35;;;4.60;99.90;;;;;;5062142;28;20059;-84
2023/03/27 00:07:21;;;;;;;2.67;0.90;;;4.60;99.90;;;;;;5041158;28;20041;-85
2023/03/27 00:09:49;;;;;;;4.20;0.98;;;4.50;99.90;;;;;;5069935;28;20068;-87
2023/03/27 00:12:20;;;;;;;1.00;1.00;;;4.50;99.90;;;;;;5071336;28;20047;-87
2023/03/27 00:14:48;;;;;;;0.95;0.95;;;4.50;99.90;;;;;;5037637;28;20048;-86
2023/03/27 00:17:16;;;;;;;0.85;0.85;;;4.50;99.90;;;;;;5070764;28;20056;-85
2023/03/27 00:19:44;;;;;;;0.80;0.80;;;4.50;99.90;;;;;;5070410;28;20048;-85
2023/03/27 00:22:12;;;;;;;1.08;0.88;;;4.40;99.90;;;;;;5053621;28;20369;-86
2023/03/27 00:24:42;;;;;;;0.85;0.85;;;4.50;99.90;;;;;;5064118;28;20052;-86
2023/03/27 00:27:10;;;;;;;0.77;0.77;;;4.50;99.90;;;;;;5052943;28;20392;-86
2023/03/27 00:29:38;;;;;;;1.10;1.10;;;4.50;99.90;;;;;;5053272;28;20048;-86
2023/03/27 00:32:06;;;;;;;0.90;0.90;;;4.50;99.90;;;;;;5046437;28;20500;-86
2023/03/27 00:34:37;;;;;;;0.90;0.88;;;4.50;99.90;;;;;;5065857;28;20047;-85
2023/03/27 00:37:05;;;;;;;0.85;0.82;;;4.60;99.90;;;;;;5043938;28;20052;-84
2023/03/27 00:39:34;;;;;;;1.02;0.93;;;4.60;99.90;;;;;;5071803;28;20059;-84
2023/03/27 00:42:02;;;;;;;1.38;1.27;;;4.60;99.90;;;;;;5058634;28;20035;-85
2023/03/27 00:44:33;;;;;;;0.80;0.80;;;4.60;99.90;;;;;;5095461;28;20051;-85
2023/03/27 00:47:03;;;;;;;0.90;0.90;;;4.60;99.90;;;;;;5076543;28;20048;-85
2023/03/27 00:49:36;;;;;;;1.00;0.88;;;4.70;99.90;;;;;;5076238;28;20086;-86
2023/03/27 00:52:05;;;;;;;0.93;0.93;;;4.60;99.90;;;;;;5055011;28;20063;-85
2023/03/27 00:54:38;;;;;;;1.58;0.93;;;4.60;99.90;;;;;;5083276;28;20035;-84
2023/03/27 00:57:11;;;;;;;2.45;1.17;;;4.60;99.90;;;;;;5081309;28;20038;-85
2023/03/27 00:59:42;;;;;;;0.98;0.98;;;4.60;99.90;;;;;;5084408;28;20063;-85
2023/03/27 01:02:12;;;;;;;1.25;1.23;;;4.60;99.90;;;;;;5062250;28;20051;-87
2023/03/27 01:04:42;;;;;;;0.93;0.93;;;4.60;99.90;;;;;;5085843;28;20043;-89
2023/03/27 01:07:11;;;;;;;4.40;1.10;;;4.60;99.90;;;;;;5082340;28;20050;-87
2023/03/27 01:09:40;;;;;;;1.45;1.35;;;4.50;99.90;;;;;;5065138;28;20055;-88
2023/03/27 01:12:13;;;;;;;1.77;1.67;;;4.50;99.90;;;;;;5088184;28;20053;-87
2023/03/27 01:15:04;;;;;;;1.05;1.05;;;4.60;99.90;;;;;;5093104;28;20044;-88
2023/03/27 01:17:56;;;;;;;0.90;0.90;;;4.50;99.90;;;;;;5050833;28;20335;-88
2023/03/27 01:20:34;;;;;;;;;;;4.50;99.90;;;;;;5066521;28;20054;-88
2023/03/27 01:23:17;;;;;;;1.17;1.08;;;4.60;99.90;;;;;;5094260;28;19916;-87
2023/03/27 01:26:17;;;;;;;0.82;0.82;;;4.60;99.90;;;;;;5060487;28;20303;-88
2023/03/27 01:29:32;;;;;;;3.17;0.98;;;4.60;99.90;;;;;;5066443;28;20048;-88
2023/03/27 01:32:31;;;;;;;1.15;1.00;;;4.60;99.90;;;;;;5038342;28;20049;-88
2023/03/27 01:35:36;;;;;;;2.08;0.85;;;4.60;99.90;;;;;;5092648;28;20056;-87
2023/03/27 01:38:38;;;;;;;2.25;1.02;;;4.60;99.90;;;;;;5036812;28;20049;-88
2023/03/27 01:41:13;;;;;;;2.30;2.17;;;4.60;99.90;;;;;;5061485;28;20044;-88
2023/03/27 01:43:51;;;;;;;1.00;0.90;;;4.60;99.90;;;;;;5054700;28;20317;-87
2023/03/27 01:46:28;;;;;;;0.88;0.88;;;4.60;99.90;;;;;;5057766;28;20108;-87
2023/03/27 01:48:59;;;;;;;1.48;1.13;;;4.60;99.90;;;;;;5057023;28;20501;-88
2023/03/27 01:51:35;;;;;;;0.77;0.77;;;4.60;99.90;;;;;;5051177;28;20597;-87
2023/03/27 01:54:23;;;;;;;1.30;1.20;;;4.60;99.90;;;;;;5075274;28;20498;-87
2023/03/27 01:57:01;;;;;;;0.90;0.90;;;4.60;99.90;;;;;;5024590;28;20056;-87
2023/03/27 01:59:38;;;;;;;3.50;1.20;;;4.50;99.90;;;;;;5057278;28;20523;-89
2023/03/27 02:02:16;;;;;;;2.85;1.23;;;4.50;99.90;;;;;;5019234;28;20062;-87
2023/03/27 02:04:57;;;;;;;1.20;1.10;;;4.40;99.90;;;;;;5041270;28;20055;-88
2023/03/27 02:07:32;;;;;;;1.20;1.10;;;4.30;99.90;;;;;;5021633;28;20055;-88
2023/03/27 02:10:07;;;;;;;0.85;0.85;;;4.20;99.90;;;;;;5051242;28;20046;-89
2023/03/27 02:12:44;;;;;;;2.45;1.17;;;4.20;99.90;;;;;;5040014;28;20056;-89
2023/03/27 02:15:22;;;;;;;1.88;1.73;;;4.10;99.90;;;;;;5069021;28;20043;-89
2023/03/27 02:18:05;;;;;;;;;;;4.10;99.90;;;;;;5047491;28;20052;-88
2023/03/27 02:20:35;;;;;;;1.10;1.00;;;4.00;99.90;;;;;;5045805;28;19963;-88
2023/03/27 02:23:06;;;;;;;1.13;1.08;;;4.10;99.90;;;;;;5052012;28;20424;-89
2023/03/27 02:25:39;;;;;;;0.90;0.90;;;3.90;99.90;;;;;;5053588;28;20055;-89
2023/03/27 02:28:28;;;;;;;0.90;0.90;;;3.90;99.90;;;;;;5055127;28;20532;-90
2023/03/27 02:31:27;;;;;;;0.90;0.90;;;3.90;99.90;;;;;;5046576;28;20048;-90
2023/03/27 02:34:20;;;;;;;4.22;1.25;;;3.90;99.90;;;;;;5052756;28;20044;-89
2023/03/27 02:37:15;;;;;;;1.20;1.20;;;3.90;99.90;;;;;;5051542;28;20491;-89
2023/03/27 02:40:34;;;;;;;1.75;1.08;;;3.80;99.90;;;;;;5048735;28;20063;-87
2023/03/27 02:43:44;;;;;;;2.15;1.33;;;3.80;99.90;;;;;;5035373;28;20041;-87
2023/03/27 02:46:44;;;;;;;1.33;1.20;;;3.80;99.90;;;;;;5044980;28;20040;-88
2023/03/27 02:49:18;;;;;;;1.20;1.20;;;3.90;99.90;;;;;;5039715;28;20052;-86
2023/03/27 02:51:55;;;;;;;1.20;1.20;;;3.90;99.90;;;;;;5057200;28;20032;-86
2023/03/27 02:54:29;;;;;;;0.88;0.88;;;3.90;99.90;;;;;;5046770;28;20059;-88
2023/03/27 02:57:03;;;;;;;3.67;1.45;;;3.90;99.90;;;;;;5043291;28;20512;-87
2023/03/27 02:59:55;;;;;;;1.20;1.20;;;3.90;99.90;;;;;;5045025;28;20044;-87
2023/03/27 03:02:31;;;;;;;1.58;1.48;;;3.90;99.90;;;;;;5044578;28;20040;-88
2023/03/27 03:05:09;;;;;;;1.90;0.98;;;3.90;99.90;;;;;;5056428;28;20382;-88
2023/03/27 03:07:39;;;;;;;1.40;1.30;;;3.90;99.90;;;;;;5058843;28;20063;-86
2023/03/27 03:10:10;;;;;;;2.35;1.45;;;3.90;99.90;;;;;;5046426;28;20054;-87
2023/03/27 03:12:39;;;;;;;1.60;1.33;;;3.90;99.90;;;;;;5051647;28;20075;-86
2023/03/27 03:15:07;;;;;;;1.13;1.13;;;3.80;99.90;;;;;;5024259;28;20049;-88
2023/03/27 03:17:36;;;;;;;1.10;1.08;;;3.80;99.90;;;;;;5058644;28;20047;-86
2023/03/27 03:20:06;;;;;;;1.20;1.20;;;3.80;99.90;;;;;;5057624;28;20563;-86
2023/03/27 03:22:33;;;;;;;1.38;1.27;;;3.80;99.90;;;;;;5042341;28;20043;-86
2023/03/27 03:25:01;;;;;;;1.20;1.20;;;3.80;99.90;;;;;;5057885;28;20044;-88
2023/03/27 03:27:30;;;;;;;2.15;1.40;;;3.80;99.90;;;;;;5048055;28;20044;-87
2023/03/27 03:30:09;;;;;;;1.45;1.35;;;3.90;99.90;;;;;;5051747;28;20051;-87
2023/03/27 03:33:01;;;;;;;1.15;1.15;;;3.90;99.90;;;;;;5069600;28;20056;-86
2023/03/27 03:35:29;;;;;;;1.80;1.70;;;3.80;99.90;;;;;;5051550;28;20047;-88
2023/03/27 03:37:58;;;;;;;1.58;1.48;;;3.80;99.90;;;;;;5058148;28;20059;-86
2023/03/27 03:40:27;;;;;;;2.05;1.35;;;3.80;99.90;;;;;;5033937;28;20052;-85
2023/03/27 03:42:57;;;;;;;1.40;1.30;;;3.80;99.90;;;;;;5020373;28;20055;-86
2023/03/27 03:45:28;;;;;;;1.65;1.55;;;3.80;99.90;;;;;;5053027;28;20056;-84
2023/03/27 03:47:56;;;;;;;1.90;1.80;;;3.70;99.90;;;;;;5044671;28;20040;-87
2023/03/27 03:50:24;;;;;;;2.38;2.17;;;3.70;99.90;;;;;;5058575;28;20041;-88
2023/03/27 03:52:52;;;;;;;1.60;1.50;;;3.70;99.90;;;;;;5055808;28;20060;-85
2023/03/27 03:55:19;;;;;;;2.00;1.60;;;3.70;99.90;;;;;;5050712;28;20064;-88
2023/03/27 03:57:49;;;;;;;1.65;1.55;;;3.60;99.90;;;;;;5023789;28;20262;-87
2023/03/27 04:00:23;;;;;;;1.20;1.20;;;3.60;99.90;;;;;;5058717;28;20052;-89
2023/03/27 04:02:55;;;;;;;1.77;1.67;;;3.50;99.90;;;;;;5060616;28;20044;-89
2023/03/27 04:05:23;;;;;;;1.23;1.23;;;3.50;99.90;;;;;;5059293;28;20056;-86
2023/03/27 04:07:53;;;;;;;1.50;1.40;;;3.50;99.90;;;;;;5027298;28;20036;-87
2023/03/27 04:10:47;;;;;;;1.77;1.55;;;3.50;99.90;;;;;;5045628;28;20067;-85
2023/03/27 04:13:30;;;;;;;1.33;1.33;;;3.50;99.90;;;;;;5059244;28;20048;-84
2023/03/27 04:16:06;;;;;;;1.38;1.38;;;3.40;99.90;;;;;;5057488;28;20067;-86
2023/03/27 04:18:40;;;;;;;1.33;1.23;;;3.40;99.90;;;;;;5059525;28;20048;-86
2023/03/27 04:21:16;;;;;;;1.20;1.15;;;3.40;99.90;;;;;;5065806;28;20412;-86
2023/03/27 04:23:47;;;;;;;1.30;1.30;;;3.40;99.90;;;;;;5029810;28;20048;-87
2023/03/27 04:26:25;;;;;;;1.80;1.63;;;3.30;99.90;;;;;;5035520;28;20041;-83
2023/03/27 04:29:23;;;;;;;;;;;3.30;99.90;;;;;;5060450;28;20517;-85
2023/03/27 04:32:00;;;;;;;3.10;2.28;;;3.30;99.90;;;;;;5050236;28;19924;-90
2023/03/27 04:34:37;;;;;;;2.60;1.63;;;3.20;99.90;;;;;;5064025;28;20039;-91
2023/03/27 04:37:15;;;;;;;1.50;1.40;;;3.20;99.90;;;;;;5039112;28;20041;-87
2023/03/27 04:40:03;;;;;;;1.40;1.30;;;3.10;99.90;;;;;;5057885;28;20044;-88
2023/03/27 04:42:32;;;;;;;1.20;1.10;;;3.10;99.90;;;;;;5031879;28;20415;-87
2023/03/27 04:45:00;;;;;;;1.52;1.42;;;3.00;99.90;;;;;;5048451;28;20539;-86
2023/03/27 04:47:30;;;;;;;1.05;1.05;;;3.00;99.90;;;;;;5049959;28;20043;-87
2023/03/27 04:50:00;;;;;;;1.38;1.35;;;3.00;99.90;;;;;;5050705;28;20517;-88
2023/03/27 04:52:28;;;;;;;2.03;1.45;;;3.00;99.90;;;;;;5047300;28;20528;-89
2023/03/27 04:54:59;;;;;;;1.10;1.10;;;2.90;99.90;;;;;;5029494;28;20057;-89
2023/03/27 04:57:30;;;;;;;1.20;1.10;;;3.10;99.90;;;;;;5018888;28;20779;-87
2023/03/27 05:00:12;;;;;;;1.92;1.67;;;3.00;99.90;;;;;;5016467;28;20496;-90
2023/03/27 05:03:00;;;;;;;2.33;1.42;;;3.00;99.90;;;;;;5034902;28;20044;-88
2023/03/27 05:05:40;;;;;;;1.67;1.58;;;3.00;99.90;;;;;;5030803;28;20052;-86
2023/03/27 05:08:09;;;;;;;1.88;1.77;;;3.00;99.90;;;;;;5000780;28;20056;-86
2023/03/27 05:10:37;;;;;;;2.30;2.20;;;3.10;99.90;;;;;;5030818;28;20504;-83
2023/03/27 05:13:07;;;;;;;1.92;1.83;;;3.20;99.90;;;;;;5013584;28;20774;-87
2023/03/27 05:15:34;;;;;;;2.25;2.15;;;3.20;99.90;;;;;;5033421;28;20506;-88
2023/03/27 05:18:05;;;;;;;1.95;1.85;;;3.20;99.90;;;;;;5026397;28;20056;-85
2023/03/27 05:20:36;;;;;;;2.20;2.10;;;3.30;99.90;;;;;;5030425;28;20056;-89
2023/03/27 05:23:09;;;;;;;2.10;1.98;;;3.30;99.90;;;;;;5032850;28;20056;-86
2023/03/27 05:25:38;;;;;;;2.13;2.03;;;3.20;99.90;;;;;;5030650;28;20055;-84
2023/03/27 05:28:11;;;;;;;3.45;1.70;;;3.20;99.90;;;;;;5032450;28;20049;-83
2023/03/27 05:30:41;;;;;;;0.98;0.98;;;3.20;99.90;;;;;;4999235;28;20049;-85
2023/03/27 05:33:25;;;;;;;1.15;1.15;;;3.20;99.90;;;;;;5021503;28;20467;-85
2023/03/27 05:35:56;;;;;;;1.08;1.08;;;3.10;99.90;;;;;;5031474;28;20053;-85
2023/03/27 05:38:26;;;;;;;0.90;0.90;;;3.00;99.90;;;;;;5031004;28;20068;-88
2023/03/27 05:40:56;;;;;;;0.98;0.98;;;3.00;99.90;;;;;;5012933;28;20053;-85
2023/03/27 05:43:26;;;;;;;1.10;1.10;;;3.00;99.90;;;;;;5016602;28;20036;-87
2023/03/27 05:45:54;;;;;;;1.10;1.10;;;2.90;99.90;;;;;;5024579;28;20041;-86
2023/03/27 05:48:21;;;;;;;1.08;1.02;;;2.80;99.90;;;;;;5029829;28;20064;-88
2023/03/27 05:50:49;;;;;;;1.02;1.02;;;2.80;99.90;;;;;;5026832;28;20052;-84
2023/03/27 05:53:21;;;;;;;;;;;2.70;99.90;;;;;;5008864;28;20053;-84
2023/03/27 05:56:12;;;;;;;1.20;1.20;;;2.70;99.90;;;;;;5022141;28;19925;-86
2023/03/27 05:58:57;;;;;;;1.02;1.02;;;2.60;99.90;;;;;;5026879;28;20041;-84
2023/03/27 06:01:26;;;;;;;1.08;1.08;;;2.60;99.90;;;;;;5043191;28;20048;-84
2023/03/27 06:03:56;;;;;;;1.23;1.23;;;2.50;99.90;;;;;;5045324;28;20053;-86
2023/03/27 06:06:54;;;;;;;1.40;1.38;;;2.50;99.90;;;;;;5019681;28;20045;-87
2023/03/27 06:09:22;;;;;;;0.82;0.82;;;2.40;99.90;;;;;;5029845;28;20053;-83
2023/03/27 06:12:10;;;;;;;1.88;1.77;;;2.30;99.90;;;;;;5047371;28;20048;-82
2023/03/27 06:14:39;;;;;;;1.80;1.70;;;2.10;99.90;;;;;;5028909;28;20048;-84
2023/03/27 06:17:38;;;;;;;1.20;1.20;;;2.10;99.90;;;;;;5034079;28;20056;-83
2023/03/27 06:20:14;;;;;;;1.52;1.42;;;2.00;99.90;;;;;;5049199;28;20056;-84
2023/03/27 06:22:54;;;;;;;1.50;1.48;;;2.00;99.90;;;;;;5040250;28;20041;-84
2023/03/27 06:25:33;;;;;;;1.75;1.65;;;2.00;99.90;;;;;;5002569;28;20102;-83
2023/03/27 06:28:03;;;;;;;1.52;1.42;;;2.00;99.90;;;;;;5039935;28;20053;-84
2023/03/27 06:30:37;;;;;;;1.77;1.67;;;2.00;99.90;;;;;;5024134;28;20037;-82
2023/03/27 06:33:42;;;;;;;3.47;1.92;;;2.10;99.90;;;;;;5033517;28;20049;-82
2023/03/27 06:36:23;;;;;;;2.67;1.30;;;2.10;99.90;;;;;;5049896;28;20068;-84
2023/03/27 06:38:53;;;;;;;2.00;1.90;;;2.20;99.90;;;;;;5023893;28;20044;-82
2023/03/27 06:41:21;;;;;;;2.28;1.30;;;2.10;99.90;;;;;;5048288;28;20060;-84
2023/03/27 06:44:07;;;;;;;1.80;1.70;;;2.00;99.90;;;;;;5015171;28;20045;-84
2023/03/27 06:46:55;;;;;;;2.22;2.13;;;2.10;99.90;;;;;;5043472;28;20040;-85
2023/03/27 06:49:29;;;;;;;3.05;1.83;;;2.10;99.90;;;;;;5048926;28;20064;-84
2023/03/27 06:52:00;;;;;;;1.55;1.55;;;2.10;99.90;;;;;;5065020;28;20037;-84
2023/03/27 06:54:42;;;;;;;1.95;1.80;;;2.00;99.90;;;;;;5054507;28;20454;-82
2023/03/27 06:57:11;;;;;;;1.92;1.77;;;2.00;99.90;;;;;;5087676;28;20051;-84
2023/03/27 07:00:42;;;;;;;1.45;1.35;;;2.00;99.90;;;;;;5024509;28;20047;-83
2023/03/27 07:03:24;;;;;;;2.22;1.52;;;2.00;99.90;;;;;;5055994;28;20052;-86
2023/03/27 07:06:11;;;;;;;1.92;1.83;;;2.10;99.90;;;;;;5064727;28;20049;-82
2023/03/27 07:08:46;;;;;;;1.88;1.77;;;2.10;99.90;;;;;;5051553;28;20056;-85
2023/03/27 07:11:16;;;;;;;1.10;1.10;;;2.10;99.90;;;;;;5049677;28;20037;-82
2023/03/27 07:13:57;;;;;;;1.75;1.55;;;2.10;99.90;;;;;;5027533;28;20049;-83
2023/03/27 07:16:27;;;;;;;2.38;1.65;;;2.10;99.90;;;;;;5059994;28;20057;-85
2023/03/27 07:18:56;;;;;;;1.83;1.73;;;2.10;99.90;;;;;;5017991;28;20055;-84
2023/03/27 07:21:28;;;;;;;4.10;3.80;;;2.10;99.90;;;;;;5031149;28;20044;-86
2023/03/27 07:23:58;;;;;;;1.70;1.60;;;2.20;99.90;;;;;;5039970;28;20047;-84
2023/03/27 07:26:35;;;;;;;1.42;1.33;;;2.20;99.90;;;;;;5027604;28;20033;-85
2023/03/27 07:29:21;;;;;;;1.17;1.17;;;2.20;99.90;;;;;;5058836;28;20046;-84
2023/03/27 07:31:55;;;;;;;1.80;1.40;;;2.10;99.90;;;;;;5017885;28;20048;-84
2023/03/27 07:34:47;;;;;;;2.40;2.30;;;2.30;99.90;;;;;;5013659;28;20723;-83
2023/03/27 07:37:36;;;;;;;1.90;1.80;;;2.20;99.90;;;;;;5037668;28;20048;-86
2023/03/27 07:40:25;;;;;;;1.73;1.63;;;2.10;99.90;;;;;;5052987;28;20052;-84
2023/03/27 07:43:29;;;;;;;1.20;1.20;;;2.00;99.90;;;;;;5039284;28;20056;-83
2023/03/27 07:45:59;;;;;;;1.30;1.20;;;2.00;99.90;;;;;;5014344;28;20048;-84
2023/03/27 07:48:28;;;;;;;2.22;2.10;;;1.90;99.90;;;;;;5007566;28;20041;-84
2023/03/27 07:51:00;;;;;;;2.15;2.03;;;1.90;99.90;;;;;;5020811;28;20124;-83
2023/03/27 07:53:33;;;;;;;2.13;1.52;;;1.90;99.90;;;;;;4978292;28;20521;-83
2023/03/27 07:56:22;;;;;;;1.88;1.77;;;1.90;99.90;;;;;;5068208;28;20059;-83
2023/03/27 07:59:05;;;;;;;1.70;1.60;;;2.00;99.90;;;;;;5032623;28;20045;-84
2023/03/27 08:01:33;;;;;;;2.42;2.30;;;2.00;99.90;;;;;;5063993;28;20056;-85
2023/03/27 08:04:05;;;;;;;2.35;1.50;;;2.10;99.90;;;;;;5042832;28;20512;-81
2023/03/27 08:06:34;;;;;;;1.85;1.65;;;1.90;99.90;;;;;;5060120;28;20044;-84
2023/03/27 08:09:10;;;;;;;1.70;1.60;;;1.80;99.90;;;;;;5031676;28;20064;-85
2023/03/27 08:11:40;;;;;;;1.50;1.40;;;1.60;99.90;;;;;;5055850;28;20403;-84
2023/03/27 08:14:08;;;;;;;1.92;1.83;;;1.70;99.90;;;;;;5057360;28;20048;-85
2023/03/27 08:16:37;;;;;;;2.58;2.38;;;1.70;99.90;;;;;;5047726;28;20056;-83
2023/03/27 08:19:05;;;;;;;1.70;1.60;;;1.80;99.90;;;;;;5064923;28;20052;-84
2023/03/27 08:21:37;;;;;;;1.60;1.50;;;1.70;99.90;;;;;;5031894;28;20061;-87
2023/03/27 08:24:06;;;;;;;1.83;1.73;;;1.30;99.90;;;;;;5030931;28;20064;-86
2023/03/27 08:26:37;;;;;;;1.10;1.10;;;1.10;99.90;;;;;;5048983;28;20056;-84
2023/03/27 08:29:10;;;;;;;2.38;2.17;;;1.10;99.90;;;;;;5038379;28;20067;-84
2023/03/27 08:31:39;;;;;;;1.80;1.70;;;1.10;99.90;;;;;;5032741;28;20591;-86
2023/03/27 08:34:08;;;;;;;2.05;1.92;;;1.20;99.90;;;;;;5024199;28;20095;-85
2023/03/27 08:36:51;;;;;;;;;;;1.20;99.90;;;;;;5062751;28;20067;-86
2023/03/27 08:39:21;;;;;;;1.73;1.53;;;1.20;99.90;;;;;;5033480;28;20471;-85
2023/03/27 08:42:00;;;;;;;3.20;2.70;;;1.20;99.90;;;;;;5035610;28;20063;-84
2023/03/27 08:44:34;;;;;;;3.08;2.88;;;1.30;99.90;;;;;;5019996;28;20053;-84
2023/03/27 08:47:26;;;;;;;2.20;2.00;;;1.30;99.90;;;;;;5034894;28;20059;-85
2023/03/27 08:50:05;;;;;;;3.45;3.25;;;1.40;99.90;;;;;;5025846;28;20044;-85
2023/03/27 08:52:49;;;;;;;1.70;1.60;;;1.50;99.90;;;;;;5027348;28;20444;-85
2023/03/27 08:55:33;;;;;;;2.88;2.65;;;1.60;99.90;;;;;;5036820;28;20052;-85
2023/03/27 08:58:18;;;;;;;7.40;3.25;;;1.70;99.90;;;;;;5022333;28;20056;-86
2023/03/27 09:01:00;;;;;;;4.00;2.80;;;1.70;99.90;;;;;;5040569;28;20049;-83
2023/03/27 09:03:51;;;;;;;2.88;2.58;;;1.70;99.90;;;;;;5026460;28;20037;-83
2023/03/27 09:06:47;;;;;;;8.18;2.17;;;1.80;99.90;;;;;;5039182;28;20071;-85
2023/03/27 09:09:46;;;;;;;2.90;2.70;;;1.80;99.90;;;;;;5060419;28;20060;-83
2023/03/27 09:12:22;;;;;;;3.28;2.58;;;1.90;99.90;;;;;;5014459;28;20045;-84
2023/03/27 09:15:08;;;;;;;7.00;2.42;;;1.90;99.90;;;;;;5029606;28;20045;-84
2023/03/27 09:17:48;;;;;;;3.08;2.80;;;2.10;99.90;;;;;;5030629;28;20052;-84
2023/03/27 09:20:33;;;;;;;6.20;3.78;;;2.10;99.90;;;;;;5020054;28;20057;-84
2023/03/27 09:23:25;;;;;;;4.70;4.00;;;2.00;99.90;;;;;;5044004;28;20048;-84
2023/03/27 09:26:24;;;;;;;3.58;3.25;;;2.00;99.90;;;;;;5036629;28;20045;-84
2023/03/27 09:29:21;;;;;;;2.78;2.58;;;2.20;99.90;;;;;;5027056;28;20063;-83
2023/03/27 09:31:57;;;;;;;4.75;3.38;;;2.30;99.90;;;;;;5055066;28;20896;-85
2023/03/27 09:34:31;;;;;;;5.30;4.07;;;2.30;99.90;;;;;;5021911;28;20048;-84
2023/03/27 09:37:01;;;;;;;3.10;2.65;;;2.30;99.90;;;;;;5040713;28;20052;-83
2023/03/27 09:39:34;;;;;;;2.65;2.33;;;2.40;99.90;;;;;;5020365;28;20382;-84
2023/03/27 09:42:19;;;;;;;2.40;2.20;;;2.40;99.90;;;;;;5036046;28;20075;-84
2023/03/27 09:44:54;;;;;;;7.93;3.40;;;2.40;99.90;;;;;;5046441;28;20057;-84
2023/03/27 09:47:41;;;;;;;3.53;2.63;;;2.40;99.90;;;;;;5015901;28;20040;-84
2023/03/27 09:50:22;;;;;;;4.38;3.97;;;2.50;99.90;;;;;;5029628;28;20059;-83
2023/03/27 09:53:11;;;;;;;12.05;4.07;;;2.60;99.90;;;;;;5035200;28;20040;-85
2023/03/27 09:56:13;;;;;;;4.95;3.45;;;2.50;99.90;;;;;;4977731;28;20049;-84
2023/03/27 09:58:47;;;;;;;3.55;3.25;;;2.30;99.90;;;;;;5009269;28;20049;-84
2023/03/27 10:01:26;;;;;;;8.90;4.30;;;2.10;99.90;;;;;;5007202;28;20312;-84
2023/03/27 10:04:08;;;;;;;9.85;4.88;;;1.90;99.90;;;;;;5021021;28;20059;-85
2023/03/27 10:06:51;;;;;;;3.65;3.30;;;1.70;99.90;;;;;;4982722;28;20060;-85
2023/03/27 10:09:33;;;;;;;3.38;3.10;;;1.50;99.90;;;;;;5008752;28;20051;-84
2023/03/27 10:12:07;;;;;;;4.38;3.53;;;1.50;99.90;;;;;;4999503;28;20049;-85
2023/03/27 10:14:44;;;;;;;6.53;3.75;;;1.50;99.90;;;;;;4997738;28;20045;-85
2023/03/27 10:17:27;;;;;;;7.78;4.32;;;1.60;99.90;;;;;;5022053;28;20449;-84
2023/03/27 10:20:15;;;;;;;8.15;5.30;;;1.70;99.90;;;;;;4997936;28;20422;-86
2023/03/27 10:23:05;;;;;;;3.80;3.30;;;1.70;99.90;;;;;;5000275;28;20048;-84
2023/03/27 10:25:40;;;;;;;7.38;4.07;;;1.80;99.90;;;;;;5013450;28;20061;-86
2023/03/27 10:28:37;;;;;;;6.05;5.45;;;1.90;99.90;;;;;;5011903;28;20056;-84
2023/03/27 10:31:31;;;;;;;3.55;2.97;;;1.90;99.90;;;;;;5011854;28;20048;-85
2023/03/27 10:34:52;;;;;;;9.27;4.70;;;2.00;99.90;;;;;;4988516;28;20064;-86
2023/03/27 10:37:40;;;;;;;8.32;5.63;;;2.10;99.90;;;;;;5003543;28;20056;-83
2023/03/27 10:40:29;;;;;;;7.65;5.75;;;2.10;99.90;;;;;;5019921;28;20059;-85
2023/03/27 10:43:38;;;;;;;7.63;5.03;;;2.40;99.90;;;;;;4987117;28;20135;-86
2023/03/27 10:46:17;;;;;;;9.32;6.10;;;2.40;99.90;;;;;;4983436;28;20050;-85
2023/03/27 10:48:51;;;;;;;7.05;5.03;;;2.40;99.90;;;;;;5025670;28;20146;-85
2023/03/27 10:51:45;;;;;;;7.88;5.57;;;2.40;99.90;;;;;;5023730;28;20045;-85
2023/03/27 10:54:41;;;;;;;9.60;6.05;;;2.50;99.90;;;;;;5024427;28;20049;-88
2023/03/27 10:57:14;;;;;;;7.78;6.30;;;2.50;99.90;;;;;;5064400;28;20056;-87
2023/03/27 11:00:17;;;;;;;8.32;4.93;;;2.50;99.90;;;;;;5035104;28;20076;-85
2023/03/27 11:03:10;;;;;;;8.32;5.90;;;2.50;99.90;;;;;;5031293;28;20079;-85
2023/03/27 11:05:59;;;;;;;9.10;5.82;;;2.60;99.90;;;;;;5032298;28;20050;-85
2023/03/27 11:08:57;;;;;;;6.82;4.68;;;2.30;99.90;;;;;;5026566;28;20056;-85
2023/03/27 11:11:35;;;;;;;7.78;4.40;;;2.50;99.90;;;;;;5027838;28;20694;-86
2023/03/27 11:14:10;;;;;;;6.63;5.75;;;2.50;99.90;;;;;;5025860;28;20059;-85
2023/03/27 11:16:43;;;;;;;6.60;3.45;;;2.50;99.90;;;;;;5029598;28;20453;-84
2023/03/27 11:19:54;;;;;;;5.93;5.32;;;2.60;99.90;;;;;;5049366;28;20385;-83
2023/03/27 11:23:03;;;;;;;7.20;5.70;;;2.60;99.90;;;;;;5029357;28;20048;-83
2023/03/27 11:25:52;;;;;;;6.13;4.65;;;2.60;99.90;;;;;;5057689;28;20052;-84
2023/03/27 11:28:35;;;;;;;8.60;4.68;;;2.70;99.90;;;;;;5048250;28;20056;-86
2023/03/27 11:31:18;;;;;;;4.40;3.83;;;2.50;99.90;;;;;;5063918;28;20048;-86
2023/03/27 11:33:54;;;;;;;7.50;2.90;;;2.50;99.90;;;;;;5030246;28;20056;-87
2023/03/27 11:36:36;;;;;;;11.05;6.07;;;2.60;99.90;;;;;;5046475;28;20067;-85
2023/03/27 11:39:54;;;;;;;10.07;5.07;;;2.60;99.90;;;;;;5048095;28;20130;-86
2023/03/27 11:42:28;;;;;;;5.30;4.72;;;2.70;99.90;;;;;;5052224;28;20056;-86
2023/03/27 11:44:57;;;;;;;7.65;4.18;;;2.90;99.90;;;;;;5042482;28;20068;-86
2023/03/27 11:48:03;;;;;;;7.82;4.65;;;3.00;99.90;;;;;;5035371;28;20045;-87
2023/03/27 11:51:00;;;;;;;8.45;5.32;;;3.00;99.90;;;;;;5029101;28;20056;-86
2023/03/27 11:53:40;;;;;;;7.10;4.72;;;3.10;99.90;;;;;;5033323;28;20048;-86
2023/03/27 11:56:50;;;;;;;13.25;5.03;;;3.30;99.90;;;;;;5049344;28;20053;-84
2023/03/27 12:00:15;;;;;;;6.07;5.45;;;3.20;99.90;;;;;;5037643;28;20044;-88
2023/03/27 12:03:08;;;;;;;9.00;5.43;;;3.20;99.90;;;;;;5059022;28;20449;-84
2023/03/27 12:06:08;;;;;;;17.70;4.97;;;3.10;99.90;;;;;;5016609;28;20060;-84
2023/03/27 12:09:04;;;;;;;4.20;3.58;;;3.00;99.90;;;;;;5042593;28;20444;-84
2023/03/27 12:12:17;;;;;;;5.00;3.78;;;2.90;99.90;;;;;;5033596;28;20417;-89
2023/03/27 12:15:01;;;;;;;7.30;3.13;;;2.80;99.90;;;;;;5053150;28;20053;-88
2023/03/27 12:18:03;;;;;;;7.45;4.10;;;2.90;99.90;;;;;;5032672;28;20441;-87
2023/03/27 12:20:53;;;;;;;3.63;3.03;;;3.10;99.90;;;;;;5038534;28;20064;-86
2023/03/27 12:23:29;;;;;;;4.03;3.60;;;3.50;99.90;;;;;;5017855;28;20056;-88
2023/03/27 12:26:51;;;;;;;5.18;2.85;;;4.00;99.90;;;;;;5056622;28;20068;-89
2023/03/27 12:30:18;;;;;;;14.10;3.78;;;4.30;99.90;;;;;;5004480;28;20645;-85
2023/03/27 12:33:09;;;;;;;3.83;3.03;;;3.90;99.90;;;;;;5072181;28;20032;-86
2023/03/27 12:35:43;;;;;;;2.85;2.65;;;3.20;99.90;;;;;;5049518;28;20053;-87
2023/03/27 12:38:39;;;;;;;3.40;2.00;;;2.60;99.90;;;;;;5055966;28;20056;-88
2023/03/27 12:41:08;;;;;;;2.20;2.05;;;2.50;99.90;;;;;;5047316;28;20057;-90
2023/03/27 12:44:02;;;;;;;2.47;2.25;;;2.70;99.90;;;;;;5026823;28;20071;-87
2023/03/27 12:46:39;;;;;;;3.28;2.00;;;2.90;99.90;;;;;;5032007;28;20053;-88
2023/03/27 12:49:09;;;;;;;2.38;2.28;;;3.00;99.90;;;;;;5064448;28;20247;-88
2023/03/27 12:52:06;;;;;;;1.85;1.75;;;3.00;99.90;;;;;;5032971;28;20063;-87
2023/03/27 12:55:28;;;;;;;2.53;2.38;;;2.80;99.90;;;;;;5053964;28;20061;-88
2023/03/27 12:57:57;;;;;;;2.88;1.98;;;2.90;99.90;;;;;;5034953;28;20056;-88
2023/03/27 13:00:57;;;;;;;2.50;2.33;;;3.20;99.90;;;;;;5063403;28;20048;-88
2023/03/27 13:04:03;;;;;;;5.30;2.50;;;3.40;99.90;;;;;;5051119;28;20033;-88
2023/03/27 13:07:04;;;;;;;1.83;1.73;;;3.60;99.90;;;;;;5044042;28;20524;-84
2023/03/27 13:10:34;;;;;;;3.10;2.60;;;3.50;99.90;;;;;;5029738;28;20217;-85
2023/03/27 13:13:11;;;;;;;1.92;1.75;;;3.40;99.90;;;;;;5017247;28;20428;-87
2023/03/27 13:15:54;;;;;;;1.75;1.65;;;3.30;99.90;;;;;;5021877;28;20492;-89
2023/03/27 13:18:57;;;;;;;2.50;2.30;;;3.10;99.90;;;;;;5024081;28;20045;-92
2023/03/27 13:21:40;;;;;;;4.57;2.25;;;3.20;99.90;;;;;;5017876;28;20041;-91
2023/03/27 13:24:12;;;;;;;3.42;2.53;;;3.30;99.90;;;;;;4989196;28;20060;-92
2023/03/27 13:26:47;;;;;;;2.47;2.17;;;3.30;99.90;;;;;;5004609;28;20055;-93
2023/03/27 13:29:23;;;;;;;4.13;1.85;;;3.10;99.90;;;;;;5019171;28;20402;-90
2023/03/27 13:32:30;;;;;;;1.80;1.70;;;3.30;99.90;;;;;;4995003;28;20042;-88
2023/03/27 13:35:22;;;;;;;3.83;1.80;;;3.20;99.90;;;;;;5039959;28;20056;-90
2023/03/27 13:37:50;;;;;;;3.33;1.30;;;3.10;99.90;;;;;;5006792;28;20512;-87
2023/03/27 13:40:38;;;;;;;1.08;1.08;;;3.10;99.90;;;;;;5022844;28;20052;-88
2023/03/27 13:43:22;;;;;;;1.52;1.42;;;3.00;99.90;;;;;;5004698;28;20989;-88
2023/03/27 13:46:13;;;;;;;1.17;1.08;;;3.00;99.90;;;;;;5022442;28;20442;-90
2023/03/27 13:49:30;;;;;;;6.63;1.60;;;3.00;99.90;;;;;;5039033;28;20060;-90
2023/03/27 13:52:40;;;;;;;4.20;1.88;;;3.10;99.90;;;;;;4958864;28;20056;-92
2023/03/27 13:55:16;;;;;;;2.88;1.77;;;3.20;99.90;;;;;;5027339;28;20053;-90
2023/03/27 13:58:20;;;;;;;1.90;1.65;;;3.10;99.90;;;;;;5034786;28;20053;-91
2023/03/27 14:01:24;;;;;;;1.75;1.65;;;3.20;99.90;;;;;;5015855;28;20052;-90
2023/03/27 14:04:09;;;;;;;4.13;2.65;;;3.10;99.90;;;;;;5026967;28;20048;-83
2023/03/27 14:07:28;;;;;;;1.60;1.50;;;3.00;99.90;;;;;;5057883;28;20044;-87
2023/03/27 14:10:27;;;;;;;3.70;1.35;;;3.10;99.90;;;;;;5007889;28;20049;-91
2023/03/27 14:13:29;;;;;;;7.50;3.05;;;3.40;99.90;;;;;;5026268;28;20056;-90